This is the latest recevied weather packets stored in our database for station/object N7NIP. If no packets are shown the sender has not sent any weather packets the latest 1 day(s).
| Time | Temp. | Humidity | Pressure | Rain* | Wind** | Luminosity | Snow |
|---|---|---|---|---|---|---|---|
| 1778032384 | 17.78° C | 67% | 1029.1 hPa | 0 mm | - | 62 W/m² | - |
| 1778031777 | 18.89° C | 64% | 1029.1 hPa | 0 mm | - | 143 W/m² | - |
| 1778031474 | 18.33° C | 65% | 1029.3 hPa | 0 mm | - | 158 W/m² | - |
| 1778030868 | 17.78° C | 66% | 1029.1 hPa | 0 mm | - | 191 W/m² | - |
| 1778030565 | 17.78° C | 67% | 1029.1 hPa | 0 mm | - | 207 W/m² | - |
| 1778029958 | 18.33° C | 66% | 1029.1 hPa | 0 mm | - | 249 W/m² | - |
| 1778029657 | 17.78° C | 66% | 1029.1 hPa | 0 mm | - | 265 W/m² | - |
| 1778029354 | 17.78° C | 68% | 1029.2 hPa | 0 mm | - | 288 W/m² | - |
| 1778029051 | 18.33° C | 66% | 1029.3 hPa | 0 mm | - | 303 W/m² | - |
| 1778028748 | 18.89° C | 64% | 1029.3 hPa | 0 mm | - | 319 W/m² | - |
| 1778027837 | 18.89° C | 66% | 1029.1 hPa | 0 mm | - | 386 W/m² | - |
| 1778027534 | 18.33° C | 66% | 1029.4 hPa | 0 mm | - | 427 W/m² | - |
| 1778026926 | 17.22° C | 70% | 1029.4 hPa | 0 mm | - | 472 W/m² | - |
| 1778025109 | 16.11° C | 74% | 1029.8 hPa | 0 mm | - | 342 W/m² | - |
| 1778023897 | 16.11° C | 76% | 1029.8 hPa | 0 mm | - | 217 W/m² | - |
| 1778023292 | 15.56° C | 76% | 1029.8 hPa | 0 mm | - | 208 W/m² | - |
| 1778022081 | 15.56° C | 76% | 1030.3 hPa | 0 mm | - | 223 W/m² | - |
| 1778021474 | 15.56° C | 75% | 1030.2 hPa | 0 mm | - | 284 W/m² | - |
| 1778019654 | 15.56° C | 77% | 1030.2 hPa | 0 mm | - | 251 W/m² | - |
| 1778018745 | 15.56° C | 77% | 1030.6 hPa | 0 mm | - | 219 W/m² | - |
| 1778017838 | 15° C | 77% | 1030.4 hPa | 0 mm | - | 231 W/m² | - |
| 1778017536 | 15° C | 78% | 1030.5 hPa | 0 mm | - | 221 W/m² | - |
| 1778016323 | 15° C | 77% | 1030.4 hPa | 0 mm | - | 262 W/m² | - |
| 1778015414 | 15° C | 79% | 1030.4 hPa | 0 mm | - | 227 W/m² | - |
| 1778014808 | 14.44° C | 79% | 1030.8 hPa | 0 mm | - | 218 W/m² | - |
* Rain latest hour (hover to see other rain measurements)
** Current wind speed in m/s (hover to see current wind gust speed)